Time;durP1;ratioP1;P1;durP2;ratioP2;P2;SDS_P1;SDS_P2;PMS_P1;PMS_P2;Temp;Humidity;BMP_temperature;BMP_pressure;BME280_temperature;BME280_humidity;BME280_pressure;Samples;Min_cycle;Max_cycle;Signal;HPM_P1;HPM_P2
2023/10/04 00:00:50;;;;;;;2.73;2.53;;;21.50;99.90;;;;;;4998579;28;20975;-54
2023/10/04 00:03:18;;;;;;;2.50;2.20;;;21.50;99.90;;;;;;5002783;28;20831;-52
2023/10/04 00:05:45;;;;;;;2.10;1.93;;;21.50;99.90;;;;;;5003566;28;20489;-60
2023/10/04 00:08:11;;;;;;;2.73;2.17;;;21.50;99.90;;;;;;5001856;28;20467;-56
2023/10/04 00:10:40;;;;;;;2.80;2.00;;;21.50;99.90;;;;;;5002525;28;20464;-54
2023/10/04 00:13:06;;;;;;;2.50;2.23;;;21.50;99.90;;;;;;5003690;28;20962;-55
2023/10/04 00:15:33;;;;;;;2.23;1.70;;;21.50;99.90;;;;;;5001291;28;20954;-55
2023/10/04 00:18:00;;;;;;;3.23;2.23;;;21.50;99.90;;;;;;5001526;28;20467;-56
2023/10/04 00:20:31;;;;;;;2.40;2.20;;;21.50;99.90;;;;;;5001414;28;20462;-55
2023/10/04 00:22:58;;;;;;;2.63;2.10;;;21.50;99.90;;;;;;5003903;28;20882;-55
2023/10/04 00:25:25;;;;;;;1.97;1.77;;;21.50;99.90;;;;;;5001230;28;20465;-55
2023/10/04 00:27:56;;;;;;;2.80;2.25;;;21.50;99.90;;;;;;5001003;28;20468;-59
2023/10/04 00:30:25;;;;;;;1.80;1.70;;;21.50;99.90;;;;;;5002152;28;21805;-55
2023/10/04 00:32:53;;;;;;;2.80;1.97;;;21.50;99.90;;;;;;4998252;28;20469;-59
2023/10/04 00:35:21;;;;;;;2.60;2.37;;;21.50;99.90;;;;;;5000698;28;20472;-53
2023/10/04 00:37:51;;;;;;;2.33;2.13;;;21.50;99.90;;;;;;4998039;28;20482;-54
2023/10/04 00:40:22;;;;;;;1.90;1.77;;;21.50;99.90;;;;;;5003348;28;20452;-53
2023/10/04 00:42:49;;;;;;;3.37;1.90;;;21.50;99.90;;;;;;5000556;28;20946;-57
2023/10/04 00:45:19;;;;;;;2.00;1.80;;;21.40;99.90;;;;;;5000350;28;20469;-56
2023/10/04 00:47:48;;;;;;;2.80;2.53;;;21.40;99.90;;;;;;4998007;28;20489;-56
2023/10/04 00:50:18;;;;;;;2.10;1.90;;;21.50;99.90;;;;;;5001597;28;20466;-55
2023/10/04 00:52:48;;;;;;;1.90;1.73;;;21.40;99.90;;;;;;5001397;28;20462;-55
2023/10/04 00:55:18;;;;;;;2.30;2.10;;;21.40;99.90;;;;;;5000862;28;20498;-58
2023/10/04 00:57:48;;;;;;;2.30;1.83;;;21.40;99.90;;;;;;4999750;28;20454;-58
2023/10/04 01:00:17;;;;;;;2.37;2.00;;;21.40;99.90;;;;;;4997480;28;20906;-57
2023/10/04 01:02:44;;;;;;;1.80;1.70;;;21.40;99.90;;;;;;4996307;28;20692;-53
2023/10/04 01:05:11;;;;;;;2.53;2.10;;;21.40;99.90;;;;;;4999062;28;20554;-51
2023/10/04 01:07:39;;;;;;;2.07;1.87;;;21.40;99.90;;;;;;5000090;28;20462;-58
2023/10/04 01:10:07;;;;;;;2.00;1.83;;;21.40;99.90;;;;;;4996794;28;20494;-59
2023/10/04 01:12:40;;;;;;;2.13;1.77;;;21.40;99.90;;;;;;5000165;28;20480;-57
2023/10/04 01:15:21;;;;;;;2.80;2.10;;;21.40;99.90;;;;;;4995056;28;20580;-58
2023/10/04 01:17:51;;;;;;;2.10;1.83;;;21.40;99.90;;;;;;4997436;28;20472;-57
2023/10/04 01:20:22;;;;;;;1.77;1.67;;;21.40;99.90;;;;;;4992583;28;20827;-55
2023/10/04 01:22:50;;;;;;;2.00;1.80;;;21.40;99.90;;;;;;4999386;28;20842;-54
2023/10/04 01:25:18;;;;;;;2.03;1.70;;;21.40;99.90;;;;;;4996756;28;20564;-56
2023/10/04 01:27:45;;;;;;;1.97;1.77;;;21.40;99.90;;;;;;4997436;28;21004;-56
2023/10/04 01:30:14;;;;;;;2.43;1.90;;;21.40;99.90;;;;;;4997433;28;20462;-57
2023/10/04 01:32:40;;;;;;;2.87;1.70;;;21.40;99.90;;;;;;5000721;28;20853;-59
2023/10/04 01:35:09;;;;;;;2.17;1.60;;;21.40;99.90;;;;;;4998913;28;20458;-55
2023/10/04 01:37:38;;;;;;;2.10;1.83;;;21.40;99.90;;;;;;4999203;28;20461;-57
2023/10/04 01:40:12;;;;;;;2.10;1.60;;;21.40;99.90;;;;;;4998861;28;20503;-56
2023/10/04 01:42:40;;;;;;;3.27;1.70;;;21.40;99.90;;;;;;4998781;28;20492;-56
2023/10/04 01:45:09;;;;;;;2.30;2.10;;;21.40;99.90;;;;;;4996660;28;20466;-58
2023/10/04 01:47:36;;;;;;;2.30;2.10;;;21.40;99.90;;;;;;4999281;28;21150;-57
2023/10/04 01:50:05;;;;;;;2.00;1.70;;;21.40;99.90;;;;;;4999738;28;20206;-57
2023/10/04 01:52:33;;;;;;;1.88;1.58;;;21.40;99.90;;;;;;5000312;28;20459;-54
2023/10/04 01:55:00;;;;;;;2.25;1.90;;;21.40;99.90;;;;;;4997571;28;20196;-56
2023/10/04 01:57:29;;;;;;;2.50;1.97;;;21.40;99.90;;;;;;4999210;28;20205;-57
2023/10/04 01:59:55;;;;;;;1.97;1.77;;;21.40;99.90;;;;;;5000953;28;22593;-50
2023/10/04 02:02:23;;;;;;;1.70;1.60;;;21.40;99.90;;;;;;4998711;28;20485;-57
2023/10/04 02:04:53;;;;;;;1.73;1.60;;;21.40;99.90;;;;;;4996416;28;21049;-55
2023/10/04 02:07:23;;;;;;;2.00;1.70;;;21.40;99.90;;;;;;4998864;28;20462;-53
2023/10/04 02:09:51;;;;;;;1.83;1.73;;;21.40;99.90;;;;;;5000301;28;20189;-53
2023/10/04 02:12:18;;;;;;;1.63;1.40;;;21.40;99.90;;;;;;4996231;28;20273;-53
2023/10/04 02:14:46;;;;;;;2.07;1.60;;;21.40;99.90;;;;;;4997499;28;20464;-54
2023/10/04 02:17:16;;;;;;;1.80;1.50;;;21.40;99.90;;;;;;4996507;28;20465;-59
2023/10/04 02:19:43;;;;;;;2.57;2.37;;;21.40;99.90;;;;;;4997003;28;20470;-59
2023/10/04 02:22:12;;;;;;;3.50;1.73;;;21.40;99.90;;;;;;4996535;28;20467;-57
2023/10/04 02:24:39;;;;;;;2.37;1.93;;;21.40;99.90;;;;;;5002471;28;20458;-55
2023/10/04 02:27:07;;;;;;;2.30;1.80;;;21.40;99.90;;;;;;4998330;28;20466;-53
2023/10/04 02:29:34;;;;;;;2.23;1.63;;;21.40;99.90;;;;;;5003685;28;20466;-54
2023/10/04 02:32:08;;;;;;;2.40;1.83;;;21.40;99.90;;;;;;5003485;28;20549;-55
2023/10/04 02:34:35;;;;;;;1.70;1.60;;;21.40;99.90;;;;;;4998905;28;20230;-59
2023/10/04 02:37:06;;;;;;;2.10;1.90;;;21.30;99.90;;;;;;5004478;28;20209;-57
2023/10/04 02:39:33;;;;;;;2.43;2.20;;;21.30;99.90;;;;;;5003625;28;20475;-53
2023/10/04 02:42:00;;;;;;;1.67;1.57;;;21.30;99.90;;;;;;5002927;28;21121;-55
2023/10/04 02:44:27;;;;;;;2.47;2.23;;;21.40;99.90;;;;;;4999057;28;20552;-57
2023/10/04 02:46:55;;;;;;;2.30;1.83;;;21.30;99.90;;;;;;5002089;28;20918;-57
2023/10/04 02:49:23;;;;;;;1.53;1.43;;;21.30;99.90;;;;;;5001931;28;21044;-56
2023/10/04 02:51:50;;;;;;;1.93;1.73;;;21.30;99.90;;;;;;5004224;28;20453;-56
2023/10/04 02:54:17;;;;;;;1.80;1.30;;;21.30;99.90;;;;;;5003227;28;21362;-55
2023/10/04 02:56:46;;;;;;;2.72;2.10;;;21.30;99.90;;;;;;5001668;28;20475;-53
2023/10/04 02:59:16;;;;;;;1.97;1.73;;;21.30;99.90;;;;;;5001946;28;20859;-59
2023/10/04 03:01:43;;;;;;;1.90;1.70;;;21.30;99.90;;;;;;4998542;28;20465;-56
2023/10/04 03:04:11;;;;;;;2.27;2.07;;;21.30;99.90;;;;;;5000649;28;21022;-58
2023/10/04 03:06:41;;;;;;;1.92;1.60;;;21.30;99.90;;;;;;5003745;28;20458;-54
2023/10/04 03:09:06;;;;;;;2.30;1.88;;;21.30;99.90;;;;;;5000810;28;20203;-50
2023/10/04 03:11:33;;;;;;;1.97;1.40;;;21.30;99.90;;;;;;5003148;28;20211;-56
2023/10/04 03:14:02;;;;;;;2.10;1.90;;;21.30;99.90;;;;;;5001476;28;20280;-59
2023/10/04 03:16:29;;;;;;;2.40;2.20;;;21.30;99.90;;;;;;4997325;28;20501;-59
2023/10/04 03:18:56;;;;;;;1.67;1.42;;;21.30;99.90;;;;;;4998469;28;20548;-55
2023/10/04 03:21:26;;;;;;;2.10;1.70;;;21.30;99.90;;;;;;5000924;28;20232;-57
2023/10/04 03:23:55;;;;;;;2.07;1.87;;;21.30;99.90;;;;;;5001717;28;20546;-58
2023/10/04 03:26:22;;;;;;;2.20;2.00;;;21.30;99.90;;;;;;5001337;28;20473;-52
2023/10/04 03:28:49;;;;;;;2.10;1.90;;;21.30;99.90;;;;;;5002832;28;20549;-57
2023/10/04 03:31:18;;;;;;;3.37;1.70;;;21.30;99.90;;;;;;5003124;28;20467;-58
2023/10/04 03:33:45;;;;;;;1.73;1.60;;;21.30;99.90;;;;;;5002793;28;20498;-55
2023/10/04 03:36:15;;;;;;;2.17;1.67;;;21.30;99.90;;;;;;5001292;28;20883;-54
2023/10/04 03:38:41;;;;;;;2.20;1.70;;;21.30;99.90;;;;;;5007103;28;20469;-59
2023/10/04 03:41:09;;;;;;;3.03;1.83;;;21.30;99.90;;;;;;5006624;28;20458;-51
2023/10/04 03:43:36;;;;;;;1.77;1.65;;;21.30;99.90;;;;;;5007325;28;20220;-52
2023/10/04 03:46:16;;;;;;;2.10;1.73;;;21.30;99.90;;;;;;4999335;28;20196;-56
2023/10/04 03:48:43;;;;;;;2.03;1.77;;;21.30;99.90;;;;;;5002100;28;20458;-54
2023/10/04 03:51:10;;;;;;;2.20;1.47;;;21.30;99.90;;;;;;5003307;28;20459;-59
2023/10/04 03:53:37;;;;;;;2.10;1.90;;;21.30;99.90;;;;;;5005450;28;21296;-50
2023/10/04 03:56:04;;;;;;;2.27;1.77;;;21.30;99.90;;;;;;5002251;28;20950;-53
2023/10/04 03:58:34;;;;;;;2.33;2.13;;;21.30;99.90;;;;;;4999106;28;20603;-55
2023/10/04 04:01:01;;;;;;;1.73;1.30;;;21.30;99.90;;;;;;5004159;28;20200;-58
2023/10/04 04:03:28;;;;;;;1.90;1.70;;;21.30;99.90;;;;;;5001913;28;20482;-56
2023/10/04 04:05:55;;;;;;;2.13;1.67;;;21.20;99.90;;;;;;5004414;28;20231;-59
2023/10/04 04:08:22;;;;;;;1.70;1.60;;;21.20;99.90;;;;;;5003006;28;20467;-55
2023/10/04 04:10:50;;;;;;;1.60;1.50;;;21.20;99.90;;;;;;5002681;28;20224;-59
2023/10/04 04:13:16;;;;;;;2.27;1.40;;;21.20;99.90;;;;;;5005078;28;21293;-52
2023/10/04 04:15:45;;;;;;;1.63;1.40;;;21.20;99.90;;;;;;5003756;28;20465;-59
2023/10/04 04:18:13;;;;;;;2.40;1.98;;;21.20;99.90;;;;;;5004976;28;20839;-55
2023/10/04 04:20:41;;;;;;;1.92;1.40;;;21.20;99.90;;;;;;5005793;28;20204;-55
2023/10/04 04:23:10;;;;;;;2.40;1.60;;;21.20;99.90;;;;;;5003564;28;20212;-56
2023/10/04 04:25:38;;;;;;;2.50;1.73;;;21.20;99.90;;;;;;5004421;28;20610;-57
2023/10/04 04:28:07;;;;;;;1.67;1.53;;;21.20;99.90;;;;;;5003916;28;20483;-59
2023/10/04 04:30:35;;;;;;;1.60;1.43;;;21.20;99.90;;;;;;5004973;28;20466;-53
2023/10/04 04:33:07;;;;;;;1.60;1.30;;;21.20;99.90;;;;;;5005185;28;20466;-54
2023/10/04 04:35:47;;;;;;;2.03;1.90;;;21.20;99.90;;;;;;5006130;28;20210;-54
2023/10/04 04:38:17;;;;;;;2.13;1.92;;;21.20;99.90;;;;;;5005466;28;20872;-58
2023/10/04 04:40:46;;;;;;;1.70;1.60;;;21.20;99.90;;;;;;5006538;28;20910;-56
2023/10/04 04:43:26;;;;;;;1.87;1.40;;;21.20;99.90;;;;;;5000910;28;20580;-54
2023/10/04 04:45:54;;;;;;;1.63;1.53;;;21.20;99.90;;;;;;5002997;28;20475;-53
2023/10/04 04:48:24;;;;;;;2.10;1.90;;;21.20;99.90;;;;;;5003997;28;20463;-57
2023/10/04 04:50:52;;;;;;;2.03;1.70;;;21.20;99.90;;;;;;5004405;28;20450;-57
2023/10/04 04:53:21;;;;;;;1.80;1.63;;;21.20;99.90;;;;;;5004696;28;20208;-58
2023/10/04 04:55:49;;;;;;;1.77;1.50;;;21.20;99.90;;;;;;5000068;28;20462;-58
2023/10/04 04:58:18;;;;;;;2.43;1.37;;;21.20;99.90;;;;;;5002056;28;20537;-59
2023/10/04 05:00:49;;;;;;;1.60;1.47;;;21.20;99.90;;;;;;5003127;28;20466;-55
2023/10/04 05:03:16;;;;;;;1.80;1.60;;;21.20;99.90;;;;;;5000352;28;21108;-58
2023/10/04 05:05:44;;;;;;;1.63;1.40;;;21.20;99.90;;;;;;5000243;28;20462;-58
2023/10/04 05:08:12;;;;;;;1.70;1.40;;;21.20;99.90;;;;;;5003526;28;20467;-52
2023/10/04 05:10:39;;;;;;;1.83;1.67;;;21.20;99.90;;;;;;5000778;28;20195;-52
2023/10/04 05:13:09;;;;;;;2.30;2.10;;;21.20;99.90;;;;;;5002532;28;21099;-56
2023/10/04 05:15:38;;;;;;;1.77;1.67;;;21.20;99.90;;;;;;5001373;28;20294;-58
2023/10/04 05:18:15;;;;;;;1.73;1.53;;;21.20;99.90;;;;;;5002129;28;20470;-56
2023/10/04 05:20:43;;;;;;;2.63;2.07;;;21.20;99.90;;;;;;5002131;28;20461;-56
2023/10/04 05:23:10;;;;;;;2.20;1.70;;;21.20;99.90;;;;;;5001641;28;20490;-58
2023/10/04 05:25:37;;;;;;;1.90;1.47;;;21.20;99.90;;;;;;5001570;28;20492;-59
2023/10/04 05:28:05;;;;;;;2.70;1.53;;;21.20;99.90;;;;;;4998964;28;22830;-56
2023/10/04 05:30:32;;;;;;;2.00;1.80;;;21.20;99.90;;;;;;5001129;28;21039;-55
2023/10/04 05:32:59;;;;;;;1.98;1.30;;;21.20;99.90;;;;;;4999342;28;20469;-55
2023/10/04 05:35:27;;;;;;;2.13;1.80;;;21.10;99.90;;;;;;4999289;28;20211;-56
2023/10/04 05:37:55;;;;;;;2.90;1.80;;;21.20;99.90;;;;;;5002335;28;20469;-55
2023/10/04 05:40:25;;;;;;;1.77;1.67;;;21.20;99.90;;;;;;4999776;28;20479;-56
2023/10/04 05:42:54;;;;;;;1.70;1.40;;;21.10;99.90;;;;;;4999721;28;20561;-55
2023/10/04 05:45:21;;;;;;;1.92;1.42;;;21.10;99.90;;;;;;4996681;28;20517;-57
2023/10/04 05:47:48;;;;;;;2.00;1.53;;;21.10;99.90;;;;;;5001162;28;20345;-56
2023/10/04 05:50:18;;;;;;;1.63;1.53;;;21.10;99.90;;;;;;5000048;28;20491;-55
2023/10/04 05:52:45;;;;;;;1.67;1.40;;;21.20;99.90;;;;;;5003887;28;20617;-51
2023/10/04 05:55:16;;;;;;;1.83;1.65;;;21.10;99.90;;;;;;4997766;28;21212;-54
2023/10/04 05:57:43;;;;;;;1.67;1.57;;;21.10;99.90;;;;;;5001951;28;22105;-53
2023/10/04 06:00:22;;;;;;;1.60;1.50;;;21.10;99.90;;;;;;4996631;28;20462;-56
2023/10/04 06:02:50;;;;;;;2.13;1.83;;;21.10;99.90;;;;;;5001225;28;20310;-56
2023/10/04 06:05:19;;;;;;;2.30;1.88;;;21.10;99.90;;;;;;5001767;28;20247;-51
2023/10/04 06:07:46;;;;;;;1.73;1.57;;;21.10;99.90;;;;;;5002584;28;20207;-48
2023/10/04 06:10:15;;;;;;;1.87;1.50;;;21.10;99.90;;;;;;5001555;28;21424;-54
2023/10/04 06:12:42;;;;;;;1.55;1.42;;;21.10;99.90;;;;;;4999672;28;20467;-52
2023/10/04 06:15:13;;;;;;;2.00;1.60;;;21.10;99.90;;;;;;4995271;28;20204;-58
2023/10/04 06:17:42;;;;;;;2.28;1.95;;;21.10;99.90;;;;;;4994200;28;20463;-51
2023/10/04 06:20:23;;;;;;;1.50;1.27;;;21.10;99.90;;;;;;5001017;28;20213;-53
2023/10/04 06:22:50;;;;;;;1.33;1.10;;;21.10;99.90;;;;;;4998256;28;20295;-56
2023/10/04 06:25:20;;;;;;;1.73;1.37;;;21.10;99.90;;;;;;5001232;28;20463;-58
2023/10/04 06:27:47;;;;;;;2.20;1.50;;;21.10;99.90;;;;;;4999435;28;20490;-55
2023/10/04 06:30:16;;;;;;;1.67;1.57;;;21.10;99.90;;;;;;5001185;28;21070;-54
2023/10/04 06:32:43;;;;;;;1.63;1.40;;;21.20;99.90;;;;;;5001699;28;21167;-57
2023/10/04 06:35:11;;;;;;;1.60;1.50;;;21.10;99.90;;;;;;5001847;28;20454;-51
2023/10/04 06:37:38;;;;;;;2.30;1.83;;;21.10;99.90;;;;;;5003359;28;20903;-54
2023/10/04 06:40:11;;;;;;;2.67;2.00;;;21.10;99.90;;;;;;5001901;28;20208;-48
2023/10/04 06:42:43;;;;;;;2.00;1.80;;;21.10;99.90;;;;;;5004161;28;21256;-50
2023/10/04 06:45:12;;;;;;;2.50;1.93;;;21.10;99.90;;;;;;4999838;28;20879;-53
2023/10/04 06:47:39;;;;;;;1.70;1.48;;;21.10;99.90;;;;;;4999455;28;20469;-53
2023/10/04 06:50:07;;;;;;;2.10;1.60;;;21.10;99.90;;;;;;5003472;28;21181;-54
2023/10/04 06:52:35;;;;;;;1.70;1.60;;;21.10;99.90;;;;;;5000862;28;20463;-60
2023/10/04 06:55:07;;;;;;;1.90;1.33;;;21.10;99.90;;;;;;5001679;28;21031;-58
2023/10/04 06:57:34;;;;;;;1.90;1.58;;;21.10;99.90;;;;;;5002908;28;20353;-55
2023/10/04 07:00:12;;;;;;;1.40;1.30;;;21.10;99.90;;;;;;4999543;28;20206;-60
2023/10/04 07:02:40;;;;;;;1.57;1.23;;;21.10;99.90;;;;;;5001215;28;20878;-49
2023/10/04 07:05:08;;;;;;;1.67;1.43;;;21.10;99.90;;;;;;4998793;28;20482;-57
2023/10/04 07:07:35;;;;;;;1.80;1.35;;;21.10;99.90;;;;;;4998802;28;20466;-54
2023/10/04 07:10:02;;;;;;;1.57;1.30;;;21.10;99.90;;;;;;5003102;28;20560;-57
2023/10/04 07:12:31;;;;;;;1.65;1.50;;;21.10;99.90;;;;;;5001998;28;20544;-57
2023/10/04 07:14:58;;;;;;;1.63;1.53;;;21.10;99.90;;;;;;5002122;28;20201;-53
2023/10/04 07:17:26;;;;;;;1.70;1.27;;;21.10;99.90;;;;;;5000000;28;20470;-52
2023/10/04 07:19:52;;;;;;;2.40;1.50;;;21.10;99.90;;;;;;4999670;28;20465;-50
2023/10/04 07:22:21;;;;;;;1.80;1.37;;;21.20;99.90;;;;;;4999905;28;20474;-56
2023/10/04 07:24:48;;;;;;;2.13;1.50;;;21.20;99.90;;;;;;5003478;28;20474;-56
2023/10/04 07:27:16;;;;;;;1.60;1.27;;;21.20;99.90;;;;;;5001983;28;20465;-55
2023/10/04 07:29:43;;;;;;;2.70;1.20;;;21.20;99.90;;;;;;5004149;28;21506;-57
2023/10/04 07:32:10;;;;;;;1.60;1.20;;;21.30;99.90;;;;;;5000822;28;20462;-52
2023/10/04 07:34:38;;;;;;;2.60;1.57;;;21.30;99.90;;;;;;5000357;28;20459;-59
2023/10/04 07:37:05;;;;;;;5.70;2.60;;;21.30;99.90;;;;;;4999129;28;20454;-58
2023/10/04 07:39:32;;;;;;;7.90;3.27;;;21.30;99.90;;;;;;5002091;28;20576;-52
2023/10/04 07:41:59;;;;;;;7.13;3.30;;;21.20;99.90;;;;;;5000789;28;20546;-58
2023/10/04 07:44:30;;;;;;;4.83;2.03;;;21.10;99.90;;;;;;4998146;28;20497;-52
2023/10/04 07:46:59;;;;;;;6.40;2.83;;;21.00;99.90;;;;;;4997266;28;20466;-55
2023/10/04 07:49:26;;;;;;;8.63;3.33;;;21.00;99.90;;;;;;5000522;28;20460;-55
2023/10/04 07:51:54;;;;;;;10.10;3.20;;;21.00;99.90;;;;;;4994762;28;20452;-54
2023/10/04 07:54:22;;;;;;;9.57;3.40;;;20.90;99.90;;;;;;4998226;28;20542;-56
2023/10/04 07:56:49;;;;;;;9.45;3.92;;;21.00;99.90;;;;;;4998957;28;20464;-57
2023/10/04 07:59:17;;;;;;;10.10;3.07;;;20.90;99.90;;;;;;5000097;28;20337;-53
2023/10/04 08:01:44;;;;;;;9.03;3.07;;;20.90;99.90;;;;;;4997161;28;20463;-54
2023/10/04 08:04:12;;;;;;;11.27;2.73;;;21.00;99.90;;;;;;5000490;28;21072;-57
2023/10/04 08:06:39;;;;;;;8.30;2.43;;;21.00;99.90;;;;;;4999304;28;20459;-54
2023/10/04 08:09:07;;;;;;;9.70;3.10;;;21.00;99.90;;;;;;4999097;28;20458;-54
2023/10/04 08:11:34;;;;;;;5.80;2.87;;;21.00;99.90;;;;;;5000099;28;20469;-53
2023/10/04 08:14:07;;;;;;;6.87;2.67;;;21.00;99.90;;;;;;5004894;28;20553;-54
2023/10/04 08:16:34;;;;;;;5.23;2.50;;;21.10;99.90;;;;;;5003628;28;20505;-55
2023/10/04 08:19:01;;;;;;;13.80;3.13;;;21.10;99.90;;;;;;5001215;28;20461;-54
2023/10/04 08:21:28;;;;;;;12.30;2.50;;;21.10;99.90;;;;;;5002396;28;21500;-54
2023/10/04 08:23:55;;;;;;;7.80;2.70;;;21.10;99.90;;;;;;5004439;28;20481;-55
2023/10/04 08:26:23;;;;;;;5.60;2.40;;;21.10;99.90;;;;;;4998912;28;20456;-57
2023/10/04 08:28:50;;;;;;;5.63;2.97;;;21.10;99.90;;;;;;5003483;28;20472;-58
2023/10/04 08:31:18;;;;;;;8.00;3.63;;;21.10;99.90;;;;;;5004744;28;20485;-50
2023/10/04 08:33:45;;;;;;;6.00;2.63;;;21.20;99.90;;;;;;5005969;28;21679;-51
2023/10/04 08:36:15;;;;;;;8.40;4.50;;;21.20;99.90;;;;;;4998962;28;20464;-53
2023/10/04 08:38:42;;;;;;;4.63;2.50;;;21.20;99.90;;;;;;5005247;28;21127;-53
2023/10/04 08:41:09;;;;;;;7.10;2.50;;;21.20;99.90;;;;;;5005700;28;20472;-51
2023/10/04 08:43:38;;;;;;;6.87;3.30;;;21.20;99.90;;;;;;5003754;28;20470;-55
2023/10/04 08:46:07;;;;;;;4.70;2.17;;;21.20;99.90;;;;;;5003927;28;20550;-56
2023/10/04 08:48:34;;;;;;;4.17;1.93;;;21.30;99.90;;;;;;5002562;28;20470;-50
2023/10/04 08:51:11;;;;;;;4.67;2.60;;;21.30;99.90;;;;;;5005200;28;20459;-56
2023/10/04 08:53:48;;;;;;;6.30;2.43;;;21.30;99.90;;;;;;5001007;28;20458;-55
2023/10/04 08:56:17;;;;;;;6.20;2.90;;;21.30;99.90;;;;;;5003980;28;20454;-54
2023/10/04 08:58:47;;;;;;;3.70;2.43;;;21.30;99.90;;;;;;5006007;28;20544;-55
2023/10/04 09:01:16;;;;;;;5.37;2.00;;;21.30;99.90;;;;;;5003559;28;20450;-57
2023/10/04 09:03:44;;;;;;;5.37;2.60;;;21.30;99.90;;;;;;5000602;28;20454;-59
2023/10/04 09:06:14;;;;;;;5.10;2.20;;;21.30;99.90;;;;;;5003729;28;20467;-58
2023/10/04 09:08:41;;;;;;;3.40;2.67;;;21.30;99.90;;;;;;5005197;28;20467;-58
2023/10/04 09:11:10;;;;;;;6.27;3.20;;;21.40;99.90;;;;;;5003358;28;20465;-60
2023/10/04 09:13:44;;;;;;;5.97;2.20;;;21.40;99.90;;;;;;5003376;28;20519;-53
2023/10/04 09:16:20;;;;;;;8.10;2.97;;;21.40;99.90;;;;;;4994192;28;20455;-58
2023/10/04 09:18:46;;;;;;;3.47;2.10;;;21.40;99.90;;;;;;4997484;28;20498;-56
2023/10/04 09:21:16;;;;;;;6.47;2.90;;;21.40;99.90;;;;;;5000634;28;20454;-53
2023/10/04 09:23:44;;;;;;;4.07;2.67;;;21.40;99.90;;;;;;5001082;28;22416;-53
2023/10/04 09:26:19;;;;;;;7.27;3.00;;;21.40;99.90;;;;;;5000884;28;20455;-56
2023/10/04 09:28:48;;;;;;;7.70;2.80;;;21.40;99.90;;;;;;5006310;28;20464;-52
2023/10/04 09:31:18;;;;;;;7.27;2.97;;;21.40;99.90;;;;;;5002751;28;20461;-60
2023/10/04 09:33:47;;;;;;;7.90;2.87;;;21.40;99.90;;;;;;5003695;28;20486;-58
2023/10/04 09:36:13;;;;;;;9.50;2.90;;;21.40;99.90;;;;;;4997187;28;21006;-54
2023/10/04 09:38:41;;;;;;;4.53;2.33;;;21.50;99.90;;;;;;4998357;28;20470;-54
2023/10/04 09:41:09;;;;;;;4.63;2.60;;;21.50;99.90;;;;;;4999957;28;20466;-56
2023/10/04 09:43:39;;;;;;;10.30;3.00;;;21.50;99.90;;;;;;4997990;28;20470;-61
2023/10/04 09:46:09;;;;;;;9.13;2.77;;;21.50;99.90;;;;;;4997821;28;20475;-56
2023/10/04 09:48:38;;;;;;;6.60;2.60;;;21.50;99.90;;;;;;5000573;28;21154;-54
2023/10/04 09:51:07;;;;;;;9.67;2.97;;;21.50;99.90;;;;;;4998928;28;20462;-59
2023/10/04 09:53:38;;;;;;;6.67;3.40;;;21.60;99.90;;;;;;4999943;28;20458;-58
2023/10/04 09:56:06;;;;;;;9.67;2.67;;;21.60;99.90;;;;;;5001261;28;20467;-61
2023/10/04 09:58:34;;;;;;;6.13;2.50;;;21.60;99.90;;;;;;5001009;28;20490;-57
2023/10/04 10:01:08;;;;;;;4.73;2.43;;;21.60;99.90;;;;;;5001711;28;20490;-56
2023/10/04 10:03:40;;;;;;;4.43;2.70;;;21.60;99.90;;;;;;4999587;28;20462;-54
2023/10/04 10:06:11;;;;;;;6.10;3.13;;;21.60;99.90;;;;;;5001009;28;20480;-59
2023/10/04 10:08:42;;;;;;;6.27;2.97;;;21.70;99.90;;;;;;4997310;28;21224;-59
2023/10/04 10:11:11;;;;;;;6.83;2.60;;;21.70;99.90;;;;;;5000115;28;20454;-54
2023/10/04 10:13:38;;;;;;;4.47;2.70;;;21.70;99.90;;;;;;5000129;28;22184;-51
2023/10/04 10:16:06;;;;;;;7.80;3.90;;;21.70;99.90;;;;;;5001098;28;20467;-60
2023/10/04 10:18:33;;;;;;;5.50;2.60;;;21.80;99.90;;;;;;5000018;28;20555;-59
2023/10/04 10:21:00;;;;;;;5.80;2.43;;;21.80;99.90;;;;;;4998687;28;20828;-57
2023/10/04 10:23:28;;;;;;;6.57;2.80;;;21.80;99.90;;;;;;5000566;28;20524;-58
2023/10/04 10:26:18;;;;;;;6.33;2.77;;;21.80;99.90;;;;;;5000016;28;20486;-57
2023/10/04 10:28:47;;;;;;;6.57;2.60;;;21.80;99.90;;;;;;5000016;28;20453;-56
2023/10/04 10:31:20;;;;;;;7.93;3.37;;;21.80;99.90;;;;;;4998030;28;21426;-58
2023/10/04 10:33:49;;;;;;;7.97;3.57;;;21.90;99.90;;;;;;5000500;28;20851;-58
2023/10/04 10:36:23;;;;;;;7.03;2.83;;;21.90;99.90;;;;;;4997433;28;20462;-60
2023/10/04 10:38:51;;;;;;;10.20;4.27;;;21.90;99.90;;;;;;5001582;28;20455;-61
2023/10/04 10:42:07;;;;;;;11.20;3.83;;;21.90;99.90;;;;;;5000430;28;20457;-56
2023/10/04 10:44:37;;;;;;;6.50;2.33;;;21.90;99.90;;;;;;4999322;28;20477;-60
2023/10/04 10:47:06;;;;;;;7.03;2.90;;;22.00;99.90;;;;;;5000319;28;20466;-58
2023/10/04 10:49:55;;;;;;;6.43;2.60;;;22.00;99.90;;;;;;5000265;28;20464;-55
2023/10/04 10:52:31;;;;;;;8.13;2.73;;;22.00;99.90;;;;;;4997210;28;20458;-51
2023/10/04 10:55:00;;;;;;;7.90;3.10;;;22.00;99.90;;;;;;5000629;28;21229;-58
2023/10/04 10:57:29;;;;;;;7.37;3.43;;;22.10;99.90;;;;;;4998770;28;20541;-54
2023/10/04 10:59:57;;;;;;;9.93;3.37;;;22.10;99.90;;;;;;5002292;28;20495;-60
2023/10/04 11:02:25;;;;;;;7.90;2.40;;;22.10;99.90;;;;;;4998803;28;20941;-56
2023/10/04 11:04:53;;;;;;;7.70;3.07;;;22.10;99.90;;;;;;4999825;28;20487;-55
2023/10/04 11:07:22;;;;;;;7.50;3.27;;;22.10;99.90;;;;;;4997926;28;20559;-62
2023/10/04 11:09:50;;;;;;;9.60;3.00;;;22.10;99.90;;;;;;5001915;28;20743;-56
2023/10/04 11:12:21;;;;;;;6.60;3.47;;;22.10;99.90;;;;;;5000134;28;20464;-52
2023/10/04 11:14:48;;;;;;;5.07;3.13;;;22.20;99.90;;;;;;5004616;28;20455;-60
2023/10/04 11:17:15;;;;;;;7.70;3.70;;;22.20;99.90;;;;;;4998960;28;21539;-55
2023/10/04 11:19:42;;;;;;;6.37;3.23;;;22.20;99.90;;;;;;5002529;28;20503;-52
2023/10/04 11:22:09;;;;;;;5.57;2.77;;;22.20;99.90;;;;;;4999016;28;20466;-51
2023/10/04 11:24:36;;;;;;;6.73;4.03;;;22.20;99.90;;;;;;5002366;28;20845;-57
2023/10/04 11:27:04;;;;;;;7.50;3.10;;;22.20;99.90;;;;;;5001657;28;20980;-57
2023/10/04 11:29:33;;;;;;;13.80;3.43;;;22.20;99.90;;;;;;4999291;28;20475;-55
2023/10/04 11:32:00;;;;;;;9.20;3.73;;;22.20;99.90;;;;;;5000660;28;20513;-57
2023/10/04 11:34:27;;;;;;;10.40;3.60;;;22.20;99.90;;;;;;5001562;28;20470;-51
2023/10/04 11:36:58;;;;;;;8.90;3.40;;;22.20;99.90;;;;;;5001187;28;20602;-54
2023/10/04 11:39:33;;;;;;;8.23;3.23;;;22.20;99.90;;;;;;4997879;28;20814;-57
2023/10/04 11:42:01;;;;;;;5.83;3.00;;;22.20;99.90;;;;;;5001632;28;21177;-48
2023/10/04 11:44:29;;;;;;;10.30;3.40;;;22.20;99.90;;;;;;4995093;28;20458;-57
2023/10/04 11:46:58;;;;;;;6.80;2.97;;;22.20;99.90;;;;;;4998922;28;20467;-60
2023/10/04 11:49:28;;;;;;;4.23;3.23;;;22.30;99.90;;;;;;5003659;28;20823;-57
2023/10/04 11:51:58;;;;;;;6.57;3.20;;;22.30;99.90;;;;;;5004957;28;20458;-53
2023/10/04 11:54:26;;;;;;;6.17;3.87;;;22.30;99.90;;;;;;5004490;28;20455;-52
2023/10/04 11:56:53;;;;;;;7.00;3.10;;;22.30;99.90;;;;;;5003008;28;20536;-58
2023/10/04 11:59:30;;;;;;;5.23;4.00;;;22.30;99.90;;;;;;4998504;28;20613;-63
2023/10/04 12:01:58;;;;;;;6.70;3.23;;;22.30;99.90;;;;;;5003970;28;20457;-55
2023/10/04 12:04:25;;;;;;;7.37;4.07;;;22.30;99.90;;;;;;5003325;28;21096;-55
2023/10/04 12:06:59;;;;;;;6.87;3.37;;;22.30;99.90;;;;;;5001085;28;21120;-51
2023/10/04 12:09:27;;;;;;;6.23;3.20;;;22.30;99.90;;;;;;4998782;28;20465;-61
2023/10/04 12:11:54;;;;;;;7.70;3.17;;;22.30;99.90;;;;;;5000122;28;20466;-55
2023/10/04 12:14:22;;;;;;;4.03;2.90;;;22.30;99.90;;;;;;5002536;28;20470;-57
2023/10/04 12:16:49;;;;;;;5.00;2.80;;;22.30;99.90;;;;;;4999903;28;20467;-55
2023/10/04 12:19:18;;;;;;;9.23;4.20;;;22.30;99.90;;;;;;4997108;28;20462;-58
2023/10/04 12:21:45;;;;;;;5.93;3.40;;;22.40;99.90;;;;;;4998778;28;22665;-58
2023/10/04 12:24:12;;;;;;;4.10;2.80;;;22.30;99.90;;;;;;5001040;28;20455;-60
2023/10/04 12:26:39;;;;;;;4.33;2.63;;;22.40;99.90;;;;;;5002583;28;20482;-52
2023/10/04 12:29:07;;;;;;;5.60;3.10;;;22.30;99.90;;;;;;4999653;28;21300;-59
2023/10/04 12:31:34;;;;;;;5.50;3.00;;;22.30;99.90;;;;;;5001484;28;20954;-66
2023/10/04 12:34:01;;;;;;;6.20;3.43;;;22.40;99.90;;;;;;4994824;28;20462;-58
2023/10/04 12:36:29;;;;;;;5.90;2.67;;;22.40;99.60;;;;;;5001907;28;20466;-51
2023/10/04 12:38:55;;;;;;;6.43;3.30;;;22.40;99.70;;;;;;4997517;28;20465;-55
2023/10/04 12:41:22;;;;;;;6.00;3.63;;;22.40;99.50;;;;;;5002345;28;20458;-57
2023/10/04 12:43:49;;;;;;;10.13;4.10;;;22.40;99.40;;;;;;5002009;28;20467;-55
2023/10/04 12:46:16;;;;;;;5.43;3.50;;;22.30;99.20;;;;;;4999660;28;20479;-54
2023/10/04 12:48:43;;;;;;;9.80;3.07;;;22.40;99.00;;;;;;4995065;28;20465;-57
2023/10/04 12:51:10;;;;;;;5.93;2.93;;;22.40;99.10;;;;;;4995260;28;20459;-50
2023/10/04 12:53:38;;;;;;;7.20;3.40;;;22.40;98.80;;;;;;5001063;28;20454;-56